createdAt,value
2022-08-03T00:00:26.215Z,55.30
2022-08-03T00:02:53.073Z,55.12
2022-08-03T00:05:19.826Z,56.29
2022-08-03T00:07:46.391Z,55.33
2022-08-03T00:10:15.410Z,55.72
2022-08-03T00:12:42.062Z,56.76
2022-08-03T00:15:11.283Z,56.60
2022-08-03T00:17:52.030Z,56.64
2022-08-03T00:20:22.223Z,57.53
2022-08-03T00:22:49.550Z,55.76
2022-08-03T00:25:16.514Z,57.29
2022-08-03T00:27:43.252Z,57.90
2022-08-03T00:30:10.419Z,56.57
2022-08-03T00:32:36.997Z,58.41
2022-08-03T00:35:09.264Z,59.04
2022-08-03T00:37:41.571Z,58.71
2022-08-03T00:40:11.247Z,57.38
2022-08-03T00:42:48.147Z,63.79
2022-08-03T00:45:14.890Z,59.71
2022-08-03T00:47:41.532Z,57.78
2022-08-03T00:50:08.523Z,57.98
2022-08-03T00:52:35.712Z,56.45
2022-08-03T00:55:03.866Z,59.30
2022-08-03T00:57:32.175Z,59.39
2022-08-03T01:00:02.520Z,59.71
2022-08-03T01:02:29.583Z,58.35
2022-08-03T01:04:57.409Z,58.62
2022-08-03T01:07:32.965Z,62.69
2022-08-03T01:10:24.718Z,59.91
2022-08-03T01:14:00.252Z,63.05
2022-08-03T01:16:12.101Z,64.61
2022-08-03T01:18:51.258Z,61.92
2022-08-03T01:21:28.000Z,62.79
2022-08-03T01:24:05.403Z,64.31
2022-08-03T01:26:53.141Z,68.78
2022-08-03T01:29:39.633Z,63.29
2022-08-03T01:33:02.785Z,61.82
2022-08-03T01:35:11.249Z,63.16
2022-08-03T01:37:58.161Z,63.57
2022-08-03T01:40:26.090Z,72.21
2022-08-03T01:42:55.899Z,62.13
2022-08-03T01:45:24.592Z,59.08
2022-08-03T01:47:52.657Z,59.71
2022-08-03T01:50:22.498Z,61.67
2022-08-03T01:52:50.480Z,60.21
2022-08-03T01:55:20.410Z,61.57
2022-08-03T01:58:05.964Z,59.77
2022-08-03T02:00:36.385Z,59.88
2022-08-03T02:03:05.934Z,62.01
2022-08-03T02:05:33.614Z,63.24
2022-08-03T02:08:03.036Z,62.40
2022-08-03T02:10:34.530Z,61.35
2022-08-03T02:13:05.227Z,63.09
2022-08-03T02:15:35.551Z,62.78
2022-08-03T02:18:05.160Z,63.00
2022-08-03T02:20:33.247Z,63.41
2022-08-03T02:23:00.052Z,62.83
2022-08-03T02:25:27.336Z,62.79
2022-08-03T02:28:06.477Z,65.30
2022-08-03T02:30:39.181Z,64.30
2022-08-03T02:33:16.238Z,66.86
2022-08-03T02:35:44.342Z,66.00
2022-08-03T02:38:13.403Z,63.54
2022-08-03T02:40:42.075Z,65.85
2022-08-03T02:43:13.530Z,68.26
2022-08-03T02:45:45.687Z,67.31
2022-08-03T02:48:17.355Z,63.95
2022-08-03T02:50:45.957Z,65.55
2022-08-03T02:53:14.022Z,62.92
2022-08-03T02:55:43.133Z,65.96
2022-08-03T02:58:13.975Z,66.52
2022-08-03T03:00:41.757Z,64.02
2022-08-03T03:03:10.866Z,65.66
2022-08-03T03:05:54.898Z,64.69
2022-08-03T03:08:26.190Z,64.51
2022-08-03T03:10:59.679Z,66.00
2022-08-03T03:13:28.968Z,64.17
2022-08-03T03:15:57.837Z,63.10
2022-08-03T03:18:27.436Z,65.26
2022-08-03T03:20:55.332Z,66.71
2022-08-03T03:23:24.884Z,65.16
2022-08-03T03:25:52.424Z,65.21
2022-08-03T03:28:19.644Z,65.48
2022-08-03T03:30:53.181Z,64.70
2022-08-03T03:33:21.687Z,64.67
2022-08-03T03:35:48.951Z,64.54
2022-08-03T03:38:15.711Z,65.81
2022-08-03T03:40:42.819Z,65.45
2022-08-03T03:43:11.545Z,69.33
2022-08-03T03:45:41.022Z,65.93
2022-08-03T03:48:08.984Z,64.40
2022-08-03T03:50:37.255Z,65.83
2022-08-03T03:53:04.600Z,64.83
2022-08-03T03:55:31.232Z,66.01
2022-08-03T03:57:57.787Z,68.96
2022-08-03T04:00:24.389Z,66.46
2022-08-03T04:02:50.923Z,65.86
2022-08-03T04:05:36.451Z,66.52
2022-08-03T04:08:40.024Z,73.66
2022-08-03T04:11:14.867Z,70.28
2022-08-03T04:14:16.607Z,74.09
2022-08-03T04:16:48.596Z,70.80
2022-08-03T04:19:26.420Z,74.11
2022-08-03T04:21:57.633Z,68.98
2022-08-03T04:24:30.548Z,71.01
2022-08-03T04:26:59.320Z,71.96
2022-08-03T04:29:26.691Z,68.59
2022-08-03T04:31:56.413Z,70.83
2022-08-03T04:34:23.181Z,72.28
2022-08-03T04:36:53.139Z,70.74
2022-08-03T04:39:29.833Z,73.81
2022-08-03T04:42:07.198Z,70.91
2022-08-03T04:44:41.101Z,74.08
2022-08-03T04:47:09.182Z,68.57
2022-08-03T04:49:39.975Z,71.06
2022-08-03T04:52:08.742Z,69.80
2022-08-03T04:54:50.242Z,79.42
2022-08-03T04:57:22.866Z,70.64
2022-08-03T04:59:58.192Z,74.74
2022-08-03T05:02:28.519Z,70.72
2022-08-03T05:04:55.199Z,75.12
2022-08-03T05:07:25.062Z,73.45
2022-08-03T05:10:01.664Z,73.86
2022-08-03T05:12:32.908Z,74.02
2022-08-03T05:15:00.731Z,73.85
2022-08-03T05:17:28.412Z,74.62
2022-08-03T05:19:55.944Z,74.55
2022-08-03T05:22:23.378Z,71.54
2022-08-03T05:24:50.241Z,73.86
2022-08-03T05:27:19.999Z,74.87
2022-08-03T05:29:47.586Z,73.86
2022-08-03T05:32:14.684Z,72.80
2022-08-03T05:34:41.541Z,74.16
2022-08-03T05:37:08.244Z,71.51
2022-08-03T05:39:35.933Z,70.85
2022-08-03T05:42:02.763Z,70.28
2022-08-03T05:44:29.508Z,67.62
2022-08-03T05:46:57.694Z,67.46
2022-08-03T05:49:24.267Z,67.40
2022-08-03T05:52:00.360Z,64.46
2022-08-03T05:54:56.938Z,66.97
2022-08-03T05:57:24.390Z,64.97
2022-08-03T05:59:53.825Z,65.26
2022-08-03T06:02:22.271Z,64.87
2022-08-03T06:04:48.968Z,65.66
2022-08-03T06:07:15.604Z,65.99
2022-08-03T06:10:34.083Z,65.64
2022-08-03T06:12:29.746Z,65.71
2022-08-03T06:14:56.814Z,66.26
2022-08-03T06:17:23.489Z,66.22
2022-08-03T06:19:53.889Z,66.96
2022-08-03T06:22:20.654Z,65.81
2022-08-03T06:24:53.774Z,65.92
2022-08-03T06:27:21.282Z,65.08
2022-08-03T06:30:04.196Z,66.08
2022-08-03T06:32:30.738Z,65.78
2022-08-03T06:34:57.335Z,64.38
2022-08-03T06:37:24.634Z,64.32
2022-08-03T06:39:52.207Z,67.15
2022-08-03T06:42:18.860Z,63.54
2022-08-03T06:44:47.306Z,66.45
2022-08-03T06:47:13.925Z,66.04
2022-08-03T06:49:41.616Z,58.11
2022-08-03T06:52:09.314Z,61.95
2022-08-03T06:54:36.359Z,64.65
2022-08-03T06:57:03.579Z,64.76
2022-08-03T07:00:08.706Z,60.73
2022-08-03T07:02:19.431Z,65.16
2022-08-03T07:04:47.830Z,65.51
2022-08-03T07:07:14.487Z,57.40
2022-08-03T07:09:41.808Z,64.25
2022-08-03T07:12:08.619Z,63.72
2022-08-03T07:14:35.214Z,63.47
2022-08-03T07:17:01.776Z,64.51
2022-08-03T07:19:38.343Z,63.40
2022-08-03T07:22:05.068Z,62.98
2022-08-03T07:24:31.591Z,59.37
2022-08-03T07:26:58.213Z,62.93
2022-08-03T07:29:25.063Z,61.79
2022-08-03T07:31:51.642Z,61.61
2022-08-03T07:34:18.295Z,61.51
2022-08-03T07:36:44.909Z,60.90
2022-08-03T07:39:17.498Z,59.36
2022-08-03T07:41:45.449Z,58.97
2022-08-03T07:44:12.227Z,52.89
2022-08-03T07:46:38.951Z,59.80
2022-08-03T07:49:05.619Z,57.98
2022-08-03T07:51:32.310Z,56.75
2022-08-03T07:54:00.818Z,55.38
2022-08-03T07:56:28.279Z,55.03
2022-08-03T07:58:55.880Z,55.00
2022-08-03T08:01:22.643Z,54.51
2022-08-03T08:03:52.574Z,53.88
2022-08-03T08:06:21.472Z,53.42
2022-08-03T08:08:48.354Z,53.41
2022-08-03T08:11:14.986Z,51.89
2022-08-03T08:13:41.627Z,52.55
2022-08-03T08:16:08.214Z,51.88
2022-08-03T08:18:34.833Z,52.10
2022-08-03T08:21:04.311Z,50.62
2022-08-03T08:23:37.977Z,51.24
2022-08-03T08:26:09.737Z,51.99
2022-08-03T08:28:36.338Z,51.24
2022-08-03T08:31:02.915Z,50.77
2022-08-03T08:36:16.686Z,52.09
2022-08-03T08:38:45.023Z,51.55
2022-08-03T08:41:13.431Z,51.07
2022-08-03T08:43:41.988Z,51.52
2022-08-03T08:46:11.971Z,51.36
2022-08-03T08:48:42.246Z,50.90
2022-08-03T08:51:11.557Z,50.40
2022-08-03T08:53:42.963Z,49.94
2022-08-03T08:56:15.524Z,50.67
2022-08-03T08:58:52.316Z,48.51
2022-08-03T09:01:20.434Z,50.42
2022-08-03T09:03:47.686Z,49.95
2022-08-03T09:06:15.327Z,49.92
2022-08-03T09:08:42.082Z,49.36
2022-08-03T09:11:08.717Z,48.05
2022-08-03T09:13:39.031Z,48.69
2022-08-03T09:16:19.095Z,45.60
2022-08-03T09:18:48.580Z,46.41
2022-08-03T09:21:30.729Z,48.67
2022-08-03T09:24:03.284Z,49.14
2022-08-03T09:26:32.049Z,48.88
2022-08-03T09:29:08.128Z,46.17
2022-08-03T09:31:43.635Z,45.49
2022-08-03T09:34:17.009Z,46.15
2022-08-03T09:36:44.697Z,46.97
2022-08-03T09:39:42.157Z,44.10
2022-08-03T09:42:17.529Z,45.85
2022-08-03T09:44:47.901Z,46.62
2022-08-03T09:47:17.021Z,47.98
2022-08-03T09:50:03.522Z,44.02
2022-08-03T09:52:39.078Z,44.33
2022-08-03T09:56:30.732Z,46.26
2022-08-03T09:58:08.378Z,43.98
2022-08-03T10:00:55.396Z,42.73
2022-08-03T10:03:23.197Z,46.30
2022-08-03T10:05:49.962Z,44.78
2022-08-03T10:08:18.061Z,44.64
2022-08-03T10:10:47.324Z,44.46
2022-08-03T10:13:15.537Z,44.13
2022-08-03T10:16:21.275Z,45.79
2022-08-03T10:18:28.893Z,45.92
2022-08-03T10:21:03.335Z,45.55
2022-08-03T10:23:34.959Z,44.11
2022-08-03T10:26:04.733Z,43.30
2022-08-03T10:28:47.618Z,43.50
2022-08-03T10:31:16.457Z,45.17
2022-08-03T10:33:52.044Z,45.63
2022-08-03T10:36:23.950Z,43.29
2022-08-03T10:38:53.237Z,44.11
2022-08-03T10:41:21.818Z,43.78
2022-08-03T10:44:00.336Z,43.00
2022-08-03T10:46:28.625Z,43.83
2022-08-03T10:48:56.818Z,44.76
2022-08-03T10:51:24.253Z,43.61
2022-08-03T10:53:54.676Z,44.56
2022-08-03T10:57:07.895Z,42.58
2022-08-03T10:59:46.446Z,43.07
2022-08-03T11:02:14.608Z,42.97
2022-08-03T11:04:42.733Z,44.03
2022-08-03T11:07:24.604Z,40.87
2022-08-03T11:09:53.527Z,40.79
2022-08-03T11:12:30.695Z,43.50
2022-08-03T11:15:06.025Z,43.29
2022-08-03T11:17:46.483Z,43.79
2022-08-03T11:20:44.150Z,40.26
2022-08-03T11:23:10.879Z,42.92
2022-08-03T11:26:28.522Z,40.23
2022-08-03T11:29:28.720Z,40.51
2022-08-03T11:31:55.415Z,44.37
2022-08-03T11:34:22.242Z,43.75
2022-08-03T11:37:22.000Z,40.97
2022-08-03T11:39:50.824Z,41.81
2022-08-03T11:42:41.329Z,40.28
2022-08-03T11:45:09.989Z,43.32
2022-08-03T11:47:51.035Z,41.94
2022-08-03T11:50:20.018Z,43.35
2022-08-03T11:52:47.740Z,43.07
2022-08-03T11:55:16.495Z,42.22
2022-08-03T11:59:01.773Z,41.83
2022-08-03T12:00:32.131Z,42.37
2022-08-03T12:03:03.718Z,41.99
2022-08-03T12:05:42.517Z,38.36
2022-08-03T12:08:30.813Z,41.01
2022-08-03T12:11:00.080Z,39.51
2022-08-03T12:14:44.585Z,41.42
2022-08-03T12:16:19.970Z,37.59
2022-08-03T12:18:55.547Z,39.04
2022-08-03T12:21:24.679Z,37.61
2022-08-03T12:23:56.189Z,41.95
2022-08-03T12:26:23.781Z,39.25
2022-08-03T12:28:50.562Z,40.11
2022-08-03T12:31:17.275Z,41.78
2022-08-03T12:34:06.504Z,36.43
2022-08-03T12:36:35.431Z,41.53
2022-08-03T12:39:04.080Z,40.08
2022-08-03T12:41:38.288Z,40.91
2022-08-03T12:44:06.488Z,39.47
2022-08-03T12:46:39.419Z,40.42
2022-08-03T12:49:19.158Z,36.88
2022-08-03T12:51:45.800Z,40.87
2022-08-03T12:54:31.589Z,37.78
2022-08-03T12:57:11.097Z,36.35
2022-08-03T12:59:52.855Z,40.20
2022-08-03T13:02:25.618Z,36.34
2022-08-03T13:04:54.856Z,37.54
2022-08-03T13:07:22.765Z,38.35
2022-08-03T13:09:50.691Z,40.05
2022-08-03T13:12:25.843Z,37.75
2022-08-03T13:14:55.866Z,37.83
2022-08-03T13:17:22.847Z,40.22
2022-08-03T13:19:50.705Z,39.62
2022-08-03T13:22:19.958Z,39.83
2022-08-03T13:24:48.899Z,37.54
2022-08-03T13:28:11.075Z,35.66
2022-08-03T13:30:03.972Z,34.27
2022-08-03T13:32:30.832Z,38.82
2022-08-03T13:34:57.367Z,39.30
2022-08-03T13:37:24.141Z,35.54
2022-08-03T13:39:58.727Z,39.67
2022-08-03T13:42:27.830Z,37.82
2022-08-03T13:44:54.467Z,38.92
2022-08-03T13:47:21.330Z,38.59
2022-08-03T13:49:59.666Z,38.82
2022-08-03T13:52:27.853Z,39.58
2022-08-03T13:54:54.730Z,39.20
2022-08-03T13:58:03.905Z,36.21
2022-08-03T14:00:09.868Z,37.87
2022-08-03T14:02:36.637Z,39.30
2022-08-03T14:05:03.234Z,39.66
2022-08-03T14:07:29.831Z,39.21
2022-08-03T14:09:56.917Z,39.82
2022-08-03T14:12:23.622Z,39.06
2022-08-03T14:14:50.162Z,38.44
2022-08-03T14:17:16.931Z,39.37
2022-08-03T14:19:53.475Z,38.60
2022-08-03T14:22:21.298Z,38.81
2022-08-03T14:24:49.386Z,40.25
2022-08-03T14:27:16.604Z,39.75
2022-08-03T14:29:43.323Z,39.52
2022-08-03T14:32:13.108Z,39.95
2022-08-03T14:34:40.493Z,40.04
2022-08-03T14:37:07.202Z,40.35
2022-08-03T14:42:20.571Z,39.78
2022-08-03T14:44:47.555Z,36.89
2022-08-03T14:47:14.386Z,36.62
2022-08-03T14:50:32.907Z,39.53
2022-08-03T14:52:28.246Z,39.25
2022-08-03T14:54:54.895Z,36.47
2022-08-03T14:57:21.683Z,38.85
2022-08-03T14:59:55.759Z,38.83
2022-08-03T15:02:24.624Z,39.20
2022-08-03T15:04:52.336Z,38.59
2022-08-03T15:07:20.440Z,38.96
2022-08-03T15:09:48.355Z,38.57
2022-08-03T15:12:14.907Z,36.81
2022-08-03T15:14:41.610Z,38.80
2022-08-03T15:17:08.362Z,36.27
2022-08-03T15:20:00.510Z,39.05
2022-08-03T15:22:25.035Z,37.08
2022-08-03T15:25:03.203Z,38.73
2022-08-03T15:27:30.027Z,39.45
2022-08-03T15:30:07.477Z,39.56
2022-08-03T15:32:38.917Z,39.29
2022-08-03T15:35:05.913Z,39.40
2022-08-03T15:37:32.639Z,39.21
2022-08-03T15:40:01.050Z,39.08
2022-08-03T15:42:32.817Z,38.49
2022-08-03T15:44:59.617Z,39.37
2022-08-03T15:47:26.773Z,39.23
2022-08-03T15:49:53.413Z,39.51
2022-08-03T15:52:20.065Z,39.33
2022-08-03T15:54:47.782Z,37.59
2022-08-03T15:57:14.322Z,37.41
2022-08-03T15:59:40.918Z,39.13
2022-08-03T16:02:07.824Z,37.02
2022-08-03T16:04:34.423Z,38.17
2022-08-03T16:07:01.111Z,38.71
2022-08-03T16:09:43.055Z,38.54
2022-08-03T16:12:15.371Z,39.56
2022-08-03T16:14:52.482Z,38.84
2022-08-03T16:17:21.155Z,39.29
2022-08-03T16:19:49.280Z,39.12
2022-08-03T16:22:17.427Z,38.89
2022-08-03T16:24:46.760Z,39.14
2022-08-03T16:27:17.276Z,39.37
2022-08-03T16:30:00.004Z,39.12
2022-08-03T16:32:26.546Z,39.59
2022-08-03T16:34:53.202Z,40.08
2022-08-03T16:37:38.267Z,39.73
2022-08-03T16:40:17.471Z,39.64
2022-08-03T16:42:47.019Z,39.68
2022-08-03T16:45:14.048Z,38.01
2022-08-03T16:47:40.690Z,39.86
2022-08-03T16:50:15.461Z,40.02
2022-08-03T16:52:47.409Z,39.98
2022-08-03T16:55:18.344Z,40.44
2022-08-03T16:57:58.468Z,40.58
2022-08-03T17:00:33.988Z,40.53
2022-08-03T17:03:18.883Z,40.78
2022-08-03T17:05:49.719Z,40.61
2022-08-03T17:08:26.310Z,40.91
2022-08-03T17:10:54.658Z,40.93
2022-08-03T17:13:22.803Z,40.64
2022-08-03T17:16:00.790Z,41.06
2022-08-03T17:18:35.005Z,41.30
2022-08-03T17:21:06.760Z,40.76
2022-08-03T17:24:12.574Z,41.50
2022-08-03T17:26:44.733Z,41.68
2022-08-03T17:29:13.298Z,41.15
2022-08-03T17:31:48.441Z,41.99
2022-08-03T17:34:16.086Z,41.86
2022-08-03T17:39:57.046Z,42.22
2022-08-03T17:42:29.332Z,42.16
2022-08-03T17:45:02.358Z,42.14
2022-08-03T17:47:42.421Z,42.58
2022-08-03T17:50:25.302Z,42.18
2022-08-03T17:53:00.944Z,42.74
2022-08-03T17:55:55.682Z,42.63
2022-08-03T17:58:25.724Z,43.16
2022-08-03T18:01:59.577Z,42.29
2022-08-03T18:06:56.383Z,42.39
2022-08-03T18:10:06.706Z,43.10
2022-08-03T18:12:33.278Z,43.53
2022-08-03T18:15:08.355Z,43.25
2022-08-03T18:17:55.159Z,43.31
2022-08-03T18:20:34.112Z,42.60
2022-08-03T18:23:05.770Z,43.28
2022-08-03T18:25:45.412Z,43.16
2022-08-03T18:28:16.210Z,43.02
2022-08-03T18:30:53.296Z,42.56
2022-08-03T18:34:17.564Z,43.99
2022-08-03T18:36:09.776Z,43.01
2022-08-03T18:38:40.560Z,43.63
2022-08-03T18:41:15.146Z,43.10
2022-08-03T18:44:08.612Z,43.41
2022-08-03T18:46:41.057Z,43.55
2022-08-03T18:49:15.335Z,45.18
2022-08-03T18:51:46.297Z,44.00
2022-08-03T18:54:46.052Z,45.24
2022-08-03T18:57:18.857Z,44.61
2022-08-03T19:00:02.700Z,47.07
2022-08-03T19:02:38.506Z,45.83
2022-08-03T19:05:07.532Z,46.65
2022-08-03T19:07:36.174Z,44.97
2022-08-03T19:10:09.966Z,45.35
2022-08-03T19:12:51.891Z,49.14
2022-08-03T19:15:36.306Z,45.08
2022-08-03T19:18:11.015Z,45.30
2022-08-03T19:20:38.073Z,45.34
2022-08-03T19:23:06.543Z,44.98
2022-08-03T19:25:38.442Z,46.52
2022-08-03T19:28:06.135Z,45.44
2022-08-03T19:30:39.988Z,47.06
2022-08-03T19:33:15.052Z,47.70
2022-08-03T19:35:55.006Z,46.51
2022-08-03T19:38:27.570Z,45.83
2022-08-03T19:41:02.320Z,48.89
2022-08-03T19:43:52.809Z,50.46
2022-08-03T19:46:30.873Z,48.48
2022-08-03T19:49:04.835Z,49.32
2022-08-03T19:52:00.634Z,47.82
2022-08-03T19:54:45.896Z,49.43
2022-08-03T19:57:24.420Z,48.72
2022-08-03T19:59:53.263Z,49.45
2022-08-03T20:02:27.195Z,48.16
2022-08-03T20:04:57.874Z,48.96
2022-08-03T20:07:28.869Z,49.19
2022-08-03T20:09:59.611Z,49.00
2022-08-03T20:12:29.279Z,48.87
2022-08-03T20:14:57.711Z,51.19
2022-08-03T20:17:56.710Z,49.65
2022-08-03T20:20:11.258Z,50.55
2022-08-03T20:22:45.595Z,53.79
2022-08-03T20:25:20.923Z,50.24
2022-08-03T20:28:06.958Z,51.12
2022-08-03T20:30:43.136Z,50.30
2022-08-03T20:33:10.016Z,49.56
2022-08-03T20:35:36.663Z,51.67
2022-08-03T20:38:03.488Z,51.59
2022-08-03T20:40:30.149Z,51.48
2022-08-03T20:42:56.812Z,51.64
2022-08-03T20:45:58.589Z,51.43
2022-08-03T20:48:10.248Z,55.12
2022-08-03T20:50:38.951Z,53.63
2022-08-03T20:53:07.287Z,52.56
2022-08-03T20:55:48.146Z,53.62
2022-08-03T20:58:25.724Z,54.12
2022-08-03T21:00:54.398Z,58.06
2022-08-03T21:03:21.152Z,55.28
2022-08-03T21:05:51.824Z,54.24
2022-08-03T21:08:22.856Z,57.06
2022-08-03T21:10:52.815Z,52.89
2022-08-03T21:13:04.463Z,42.85
2022-08-03T21:14:01.467Z,55.95
2022-08-03T21:16:30.940Z,51.32
2022-08-03T21:19:01.039Z,53.24
2022-08-03T21:21:31.569Z,52.25
2022-08-03T21:24:00.336Z,52.51
2022-08-03T21:26:27.377Z,55.90
2022-08-03T21:28:56.743Z,55.49
2022-08-03T21:31:26.738Z,53.95
2022-08-03T21:34:01.576Z,54.58
2022-08-03T21:36:30.972Z,52.32
2022-08-03T21:38:59.069Z,52.49
2022-08-03T21:41:28.758Z,57.60
2022-08-03T21:43:55.835Z,56.96
2022-08-03T21:46:23.421Z,57.75
2022-08-03T21:48:56.335Z,55.97
2022-08-03T21:51:28.766Z,57.61
2022-08-03T21:54:02.639Z,54.64
2022-08-03T21:57:03.162Z,67.28
2022-08-03T21:59:35.181Z,57.34
2022-08-03T22:02:02.251Z,55.66
2022-08-03T22:04:42.700Z,55.98
2022-08-03T22:07:20.480Z,54.15
2022-08-03T22:09:51.221Z,53.95
2022-08-03T22:12:27.807Z,56.42
2022-08-03T22:15:00.034Z,62.04
2022-08-03T22:17:54.849Z,67.00
2022-08-03T22:20:19.357Z,58.68
2022-08-03T22:22:53.574Z,56.63
2022-08-03T22:25:27.387Z,55.88
2022-08-03T22:27:54.335Z,54.88
2022-08-03T22:30:21.202Z,54.50
2022-08-03T22:32:53.308Z,56.07
2022-08-03T22:35:21.924Z,60.25
2022-08-03T22:37:49.535Z,63.75
2022-08-03T22:40:17.372Z,60.62
2022-08-03T22:42:45.966Z,56.92
2022-08-03T22:46:07.242Z,56.89
2022-08-03T22:47:59.939Z,55.55
2022-08-03T22:50:32.530Z,57.34
2022-08-03T22:53:00.273Z,60.57
2022-08-03T22:55:27.647Z,62.95
2022-08-03T22:57:55.769Z,60.99
2022-08-03T23:00:24.059Z,59.45
2022-08-03T23:02:51.753Z,57.26
2022-08-03T23:06:01.609Z,57.75
2022-08-03T23:08:14.492Z,56.21
2022-08-03T23:10:46.769Z,55.92
2022-08-03T23:13:16.482Z,58.18
2022-08-03T23:15:51.164Z,58.49
2022-08-03T23:18:20.825Z,59.96
2022-08-03T23:20:51.501Z,59.00
2022-08-03T23:23:20.043Z,57.15
2022-08-03T23:25:49.640Z,56.61
2022-08-03T23:28:16.646Z,56.59
2022-08-03T23:30:48.846Z,60.72
2022-08-03T23:33:17.468Z,60.86
2022-08-03T23:36:27.979Z,60.61
2022-08-03T23:38:44.604Z,61.66
2022-08-03T23:41:12.585Z,57.91
2022-08-03T23:43:52.374Z,57.64
2022-08-03T23:46:22.522Z,58.30
2022-08-03T23:48:50.115Z,63.19
2022-08-03T23:51:34.857Z,69.27
2022-08-03T23:54:05.620Z,63.59
2022-08-03T23:56:46.745Z,67.89
2022-08-03T23:59:40.363Z,68.75
